AUA295 LOWW-EBBR
Flight info
| Callsign | AUA295 |
|---|---|
| Flight time | N/A |
| Altitude | 36000 |
| Route | MEDIX1C/29 MEDIX DCT RENKA DCT INBED DCT TEKTU DCT TESGA DCT UMUPU T880 ADMUM/N0360F240 T880 BATTY |
| Aircraft | A320/M-SDE3FGHIRWY/LB1 |
Departure
| Time | 2026-04-23 17:26 |
|---|---|
| Airport | Vienna International Airport (LOWW) |
Arrival
| Time | N/A |
|---|---|
| Airport | Brussels Airport (EBBR) |
| Time | Latitude | Longitude | Altitude | Speed | Heading |
|---|---|---|---|---|---|
| 2026-04-23 17:07 | 48.11605 | 16.57157 | 625 ft | 0 kts | 26° |
| 2026-04-23 17:23 | 48.11626 | 16.57303 | 617 ft | 14 kts | 117° |
| 2026-04-23 17:23 | 48.11580 | 16.57425 | 609 ft | 12 kts | 143° |
| 2026-04-23 17:23 | 48.11437 | 16.57419 | 620 ft | 10 kts | 206° |
| 2026-04-23 17:24 | 48.11378 | 16.57378 | 617 ft | 11 kts | 205° |
| 2026-04-23 17:24 | 48.11262 | 16.57293 | 617 ft | 20 kts | 207° |
| 2026-04-23 17:24 | 48.11112 | 16.57575 | 616 ft | 21 kts | 115° |
| 2026-04-23 17:25 | 48.10954 | 16.57436 | 623 ft | 32 kts | 283° |
| 2026-04-23 17:25 | 48.11160 | 16.56797 | 620 ft | 101 kts | 297° |
| 2026-04-23 17:26 | 48.11991 | 16.54197 | 1332 ft | 149 kts | 289° |
| 2026-04-23 17:26 | 48.11877 | 16.50782 | 2500 ft | 188 kts | 272° |
| 2026-04-23 17:27 | 48.11468 | 16.46405 | 3508 ft | 239 kts | 265° |
| 2026-04-23 17:27 | 48.11068 | 16.43901 | 4248 ft | 253 kts | 263° |
| 2026-04-23 17:27 | 48.10609 | 16.41336 | 5256 ft | 257 kts | 262° |
| 2026-04-23 17:27 | 48.10136 | 16.38745 | 6270 ft | 259 kts | 262° |
| 2026-04-23 17:28 | 48.09837 | 16.36110 | 7167 ft | 257 kts | 276° |
| 2026-04-23 17:28 | 48.09854 | 16.33410 | 8018 ft | 262 kts | 278° |
| 2026-04-23 17:28 | 48.10119 | 16.30762 | 8802 ft | 262 kts | 291° |
| 2026-04-23 17:28 | 48.10617 | 16.28096 | 9628 ft | 269 kts | 292° |
| 2026-04-23 17:29 | 48.11136 | 16.25353 | 10317 ft | 282 kts | 292° |
| 2026-04-23 17:29 | 48.11696 | 16.22411 | 10645 ft | 306 kts | 291° |
| 2026-04-23 17:29 | 48.12877 | 16.16053 | 11976 ft | 325 kts | 290° |
| 2026-04-23 17:30 | 48.13282 | 16.13832 | 12495 ft | 329 kts | 290° |
| 2026-04-23 17:30 | 48.14715 | 16.05985 | 14210 ft | 343 kts | 290° |
| 2026-04-23 17:30 | 48.15352 | 16.02511 | 14901 ft | 347 kts | 290° |
| 2026-04-23 17:31 | 48.15997 | 15.98992 | 15592 ft | 351 kts | 290° |
| 2026-04-23 17:31 | 48.16645 | 15.95453 | 16297 ft | 354 kts | 290° |
| 2026-04-23 17:31 | 48.17299 | 15.91878 | 16961 ft | 358 kts | 290° |